createdAt,value
2022-09-18T00:00:12.516Z,12.30
2022-09-18T00:00:25.343Z,12.30
2022-09-18T00:00:39.024Z,12.30
2022-09-18T00:00:50.739Z,12.30
2022-09-18T00:01:33.673Z,12.30
2022-09-18T00:01:45.462Z,12.30
2022-09-18T00:01:57.221Z,12.30
2022-09-18T00:02:09.302Z,12.30
2022-09-18T00:02:21.165Z,12.30
2022-09-18T00:02:33.032Z,12.30
2022-09-18T00:02:44.848Z,12.30
2022-09-18T00:02:56.658Z,12.30
2022-09-18T00:03:08.416Z,12.30
2022-09-18T00:03:20.176Z,12.30
2022-09-18T00:03:31.881Z,12.30
2022-09-18T00:03:43.655Z,12.30
2022-09-18T00:03:57.205Z,12.30
2022-09-18T00:04:11.187Z,12.30
2022-09-18T00:04:22.882Z,12.30
2022-09-18T00:04:34.856Z,12.30
2022-09-18T00:04:46.863Z,12.30
2022-09-18T00:04:58.543Z,12.30
2022-09-18T00:05:10.474Z,12.30
2022-09-18T00:05:22.170Z,12.30
2022-09-18T00:05:36.258Z,12.30
2022-09-18T00:05:47.972Z,12.30
2022-09-18T00:06:06.236Z,12.30
2022-09-18T00:06:20.829Z,12.30
2022-09-18T00:06:34.475Z,12.30
2022-09-18T00:06:46.225Z,12.40
2022-09-18T00:06:57.929Z,12.30
2022-09-18T00:07:09.679Z,12.30
2022-09-18T00:07:21.424Z,12.30
2022-09-18T00:07:33.183Z,12.30
2022-09-18T00:07:44.843Z,12.30
2022-09-18T00:07:56.508Z,12.30
2022-09-18T00:08:08.456Z,12.40
2022-09-18T00:08:20.174Z,12.30
2022-09-18T00:08:31.926Z,12.30
2022-09-18T00:08:43.851Z,12.30
2022-09-18T00:08:58.128Z,12.30
2022-09-18T00:09:11.963Z,12.30
2022-09-18T00:09:23.736Z,12.30
2022-09-18T00:09:35.508Z,12.30
2022-09-18T00:09:47.272Z,12.30
2022-09-18T00:09:59.024Z,12.30
2022-09-18T00:10:10.898Z,12.30
2022-09-18T00:10:22.614Z,12.30
2022-09-18T00:10:40.100Z,12.30
2022-09-18T00:10:51.826Z,12.30
2022-09-18T00:11:07.637Z,12.30
2022-09-18T00:11:22.154Z,12.30
2022-09-18T00:11:39.304Z,12.30
2022-09-18T00:11:51.281Z,12.30
2022-09-18T00:12:03.008Z,12.30
2022-09-18T00:12:14.776Z,12.30
2022-09-18T00:12:26.477Z,12.30
2022-09-18T00:12:38.181Z,12.30
2022-09-18T00:12:49.892Z,12.30
2022-09-18T00:13:01.624Z,12.30
2022-09-18T00:13:14.433Z,12.30
2022-09-18T00:13:26.160Z,12.30
2022-09-18T00:13:38.309Z,12.30
2022-09-18T00:13:50.140Z,12.30
2022-09-18T00:14:01.920Z,12.30
2022-09-18T00:14:16.141Z,12.30
2022-09-18T00:14:27.988Z,12.30
2022-09-18T00:14:39.672Z,12.30
2022-09-18T00:14:51.391Z,12.30
2022-09-18T00:15:03.233Z,12.30
2022-09-18T00:15:14.954Z,12.30
2022-09-18T00:15:27.129Z,12.20
2022-09-18T00:15:38.882Z,12.30
2022-09-18T00:15:56.637Z,12.30
2022-09-18T00:16:09.506Z,12.30
2022-09-18T00:16:22.454Z,12.20
2022-09-18T00:16:34.247Z,12.30
2022-09-18T00:16:46.125Z,12.30
2022-09-18T00:16:57.897Z,12.30
2022-09-18T00:17:09.751Z,12.20
2022-09-18T00:17:21.403Z,12.20
2022-09-18T00:17:33.635Z,12.20
2022-09-18T00:17:45.337Z,12.30
2022-09-18T00:17:57.086Z,12.20
2022-09-18T00:18:08.848Z,12.20
2022-09-18T00:18:20.516Z,12.30
2022-09-18T00:18:32.363Z,12.20
2022-09-18T00:18:44.102Z,12.30
2022-09-18T00:18:56.319Z,12.30
2022-09-18T00:19:08.327Z,12.20
2022-09-18T00:19:20.395Z,12.30
2022-09-18T00:19:32.085Z,12.30
2022-09-18T00:19:43.749Z,12.30
2022-09-18T00:19:55.449Z,12.30
2022-09-18T00:20:07.863Z,12.20
2022-09-18T00:20:20.138Z,12.20
2022-09-18T00:20:34.590Z,12.20
2022-09-18T00:20:46.600Z,12.20
2022-09-18T00:21:05.777Z,12.20
2022-09-18T00:21:19.306Z,12.20
2022-09-18T00:21:32.014Z,12.20
2022-09-18T00:21:45.441Z,12.20
2022-09-18T00:21:57.120Z,12.20
2022-09-18T00:22:08.817Z,12.20
2022-09-18T00:22:20.638Z,12.20
2022-09-18T00:22:32.302Z,12.20
2022-09-18T00:22:44.421Z,12.20
2022-09-18T00:22:56.280Z,12.20
2022-09-18T00:23:07.922Z,12.20
2022-09-18T00:23:19.606Z,12.20
2022-09-18T00:23:31.273Z,12.20
2022-09-18T00:23:43.141Z,12.20
2022-09-18T00:23:56.210Z,12.20
2022-09-18T00:24:07.913Z,12.20
2022-09-18T00:24:20.171Z,12.20
2022-09-18T00:24:31.936Z,12.20
2022-09-18T00:24:43.670Z,12.20
2022-09-18T00:24:55.716Z,12.20
2022-09-18T00:25:08.618Z,12.20
2022-09-18T00:25:20.312Z,12.20
2022-09-18T00:25:32.273Z,12.20
2022-09-18T00:25:43.945Z,12.20
2022-09-18T00:25:55.595Z,12.20
2022-09-18T00:26:07.780Z,12.20
2022-09-18T00:26:19.523Z,12.20
2022-09-18T00:26:31.289Z,12.20
2022-09-18T00:26:43.597Z,12.20
2022-09-18T00:26:55.775Z,12.20
2022-09-18T00:27:07.436Z,12.20
2022-09-18T00:27:19.122Z,12.20
2022-09-18T00:27:30.974Z,12.20
2022-09-18T00:27:42.750Z,12.20
2022-09-18T00:27:54.500Z,12.20
2022-09-18T00:28:06.161Z,12.20
2022-09-18T00:28:17.888Z,12.20
2022-09-18T00:28:29.663Z,12.20
2022-09-18T00:28:42.182Z,12.20
2022-09-18T00:28:54.513Z,12.20
2022-09-18T00:29:06.227Z,12.10
2022-09-18T00:29:18.031Z,12.20
2022-09-18T00:29:29.805Z,12.20
2022-09-18T00:29:41.566Z,12.20
2022-09-18T00:29:53.296Z,12.10
2022-09-18T00:30:05.458Z,12.20
2022-09-18T00:30:17.366Z,12.20
2022-09-18T00:30:29.076Z,12.20
2022-09-18T00:30:40.781Z,12.20
2022-09-18T00:30:53.714Z,12.20
2022-09-18T00:31:06.561Z,12.20
2022-09-18T00:31:20.522Z,12.20
2022-09-18T00:31:33.737Z,12.20
2022-09-18T00:31:45.648Z,12.20
2022-09-18T00:31:59.815Z,12.10
2022-09-18T00:32:11.809Z,12.20
2022-09-18T00:32:23.523Z,12.20
2022-09-18T00:32:35.195Z,12.10
2022-09-18T00:32:46.883Z,12.20
2022-09-18T00:32:58.694Z,12.20
2022-09-18T00:33:10.373Z,12.20
2022-09-18T00:33:22.106Z,12.20
2022-09-18T00:33:34.169Z,12.20
2022-09-18T00:33:46.043Z,12.20
2022-09-18T00:33:58.634Z,12.20
2022-09-18T00:34:12.095Z,12.20
2022-09-18T00:34:23.795Z,12.20
2022-09-18T00:34:35.706Z,12.20
2022-09-18T00:34:47.430Z,12.20
2022-09-18T00:34:59.095Z,12.20
2022-09-18T00:35:10.890Z,12.20
2022-09-18T00:35:22.543Z,12.20
2022-09-18T00:35:34.226Z,12.20
2022-09-18T00:35:45.902Z,12.10
2022-09-18T00:36:00.965Z,12.10
2022-09-18T00:36:14.590Z,12.10
2022-09-18T00:36:26.549Z,12.10
2022-09-18T00:36:39.153Z,12.10
2022-09-18T00:36:50.893Z,12.20
2022-09-18T00:37:02.544Z,12.10
2022-09-18T00:37:14.238Z,12.20
2022-09-18T00:37:25.892Z,12.20
2022-09-18T00:37:37.772Z,12.10
2022-09-18T00:37:49.835Z,12.20
2022-09-18T00:38:01.539Z,12.20
2022-09-18T00:38:13.208Z,12.20
2022-09-18T00:38:24.890Z,12.20
2022-09-18T00:38:36.548Z,12.10
2022-09-18T00:38:48.402Z,12.10
2022-09-18T00:39:00.312Z,12.10
2022-09-18T00:39:12.456Z,12.10
2022-09-18T00:39:24.412Z,12.10
2022-09-18T00:39:36.168Z,12.10
2022-09-18T00:39:47.982Z,12.10
2022-09-18T00:39:59.748Z,12.10
2022-09-18T00:40:11.559Z,12.10
2022-09-18T00:40:23.349Z,12.10
2022-09-18T00:40:35.141Z,12.10
2022-09-18T00:40:46.923Z,12.10
2022-09-18T00:40:59.892Z,12.10
2022-09-18T00:41:23.862Z,12.10
2022-09-18T00:41:37.306Z,12.10
2022-09-18T00:41:49.841Z,12.10
2022-09-18T00:42:01.562Z,12.10
2022-09-18T00:42:13.301Z,12.10
2022-09-18T00:42:24.993Z,12.10
2022-09-18T00:42:36.705Z,12.10
2022-09-18T00:42:48.403Z,12.10
2022-09-18T00:43:25.770Z,12.10
2022-09-18T00:43:37.612Z,12.10
2022-09-18T00:43:53.370Z,12.10
2022-09-18T00:44:31.008Z,12.10
2022-09-18T00:44:44.653Z,12.10
2022-09-18T00:44:56.362Z,12.10
2022-09-18T00:45:10.585Z,12.10
2022-09-18T00:45:22.343Z,12.10
2022-09-18T00:45:34.075Z,12.10
2022-09-18T00:45:47.317Z,12.10
2022-09-18T00:46:01.755Z,12.10
2022-09-18T00:46:22.134Z,12.10
2022-09-18T00:46:34.331Z,12.10
2022-09-18T00:46:46.164Z,12.10
2022-09-18T00:47:03.281Z,12.10
2022-09-18T00:47:24.473Z,12.10
2022-09-18T00:47:42.269Z,12.10
2022-09-18T00:47:54.017Z,12.20
2022-09-18T00:48:05.775Z,12.10
2022-09-18T00:48:18.662Z,12.10
2022-09-18T00:48:57.623Z,12.10
2022-09-18T00:49:22.381Z,12.10
2022-09-18T00:49:34.073Z,12.10
2022-09-18T00:49:50.440Z,12.10
2022-09-18T00:50:09.659Z,12.10
2022-09-18T00:50:25.308Z,12.10
2022-09-18T00:50:36.990Z,12.10
2022-09-18T00:50:48.668Z,12.10
2022-09-18T00:51:01.043Z,12.10
2022-09-18T00:51:14.100Z,12.10
2022-09-18T00:51:26.069Z,12.10
2022-09-18T00:51:37.918Z,12.10
2022-09-18T00:51:51.046Z,12.10
2022-09-18T00:52:02.764Z,12.10
2022-09-18T00:52:14.812Z,12.10
2022-09-18T00:52:28.983Z,12.10
2022-09-18T00:52:56.882Z,12.10
2022-09-18T00:53:08.602Z,12.10
2022-09-18T00:53:20.277Z,12.10
2022-09-18T00:53:32.117Z,12.10
2022-09-18T00:54:01.106Z,12.10
2022-09-18T00:54:18.016Z,12.10
2022-09-18T00:54:40.367Z,12.10
2022-09-18T00:54:54.540Z,12.10
2022-09-18T00:55:10.570Z,12.10
2022-09-18T00:55:28.743Z,12.10
2022-09-18T00:55:41.087Z,12.10
2022-09-18T00:55:52.802Z,12.00
2022-09-18T00:56:04.644Z,12.00
2022-09-18T00:56:16.866Z,12.00
2022-09-18T00:56:28.554Z,12.00
2022-09-18T00:56:40.259Z,12.00
2022-09-18T00:56:53.813Z,12.00
2022-09-18T00:57:08.427Z,12.00
2022-09-18T00:57:23.827Z,12.00
2022-09-18T00:57:36.446Z,12.00
2022-09-18T00:57:51.307Z,12.10
2022-09-18T00:58:03.177Z,12.10
2022-09-18T00:58:15.047Z,12.00
2022-09-18T00:58:26.924Z,12.00
2022-09-18T00:58:38.698Z,12.00
2022-09-18T00:58:50.856Z,12.00
2022-09-18T00:59:02.629Z,12.00
2022-09-18T00:59:15.564Z,12.00
2022-09-18T00:59:33.538Z,12.00
2022-09-18T00:59:46.352Z,12.00
2022-09-18T00:59:58.518Z,12.00
2022-09-18T01:00:14.579Z,12.00
2022-09-18T01:00:26.597Z,12.00
2022-09-18T01:00:38.552Z,12.00
2022-09-18T01:00:50.488Z,12.10
2022-09-18T01:01:02.646Z,12.00
2022-09-18T01:01:14.574Z,12.00
2022-09-18T01:01:26.376Z,12.10
2022-09-18T01:01:38.158Z,12.10
2022-09-18T01:01:49.950Z,12.00
2022-09-18T01:02:02.141Z,12.00
2022-09-18T01:02:14.037Z,12.00
2022-09-18T01:02:25.824Z,12.00
2022-09-18T01:02:39.427Z,12.00
2022-09-18T01:02:51.181Z,12.00
2022-09-18T01:03:03.009Z,12.00
2022-09-18T01:03:14.878Z,12.00
2022-09-18T01:03:26.553Z,12.00
2022-09-18T01:03:38.423Z,12.00
2022-09-18T01:03:50.123Z,12.00
2022-09-18T01:04:04.973Z,12.00
2022-09-18T01:04:16.676Z,12.00
2022-09-18T01:04:29.243Z,12.00
2022-09-18T01:04:40.997Z,12.00
2022-09-18T01:04:53.189Z,12.00
2022-09-18T01:05:05.230Z,12.00
2022-09-18T01:06:13.996Z,12.00
2022-09-18T01:06:30.905Z,12.00
2022-09-18T01:06:54.625Z,12.00
2022-09-18T01:07:19.197Z,12.00
2022-09-18T01:07:43.627Z,12.00
2022-09-18T01:08:20.156Z,12.00
2022-09-18T01:08:44.246Z,11.90
2022-09-18T01:09:04.726Z,11.90
2022-09-18T01:09:28.785Z,11.90
2022-09-18T01:10:08.085Z,11.90
2022-09-18T01:10:43.621Z,11.90
2022-09-18T01:10:58.296Z,11.90
2022-09-18T01:11:09.964Z,11.90
2022-09-18T01:11:49.550Z,11.90
2022-09-18T01:12:09.905Z,11.90
2022-09-18T01:12:27.488Z,11.90
2022-09-18T01:12:58.565Z,11.90
2022-09-18T01:13:38.896Z,11.90
2022-09-18T01:14:08.504Z,11.90
2022-09-18T01:14:29.929Z,11.90
2022-09-18T01:15:00.826Z,11.90
2022-09-18T01:15:39.995Z,11.90
2022-09-18T01:15:58.280Z,11.90
2022-09-18T01:16:20.073Z,11.90
2022-09-18T01:16:44.039Z,11.90
2022-09-18T01:17:37.673Z,11.90
2022-09-18T01:18:16.337Z,11.90
2022-09-18T01:18:39.654Z,11.90
2022-09-18T01:19:28.315Z,12.00
2022-09-18T01:20:01.404Z,11.90
2022-09-18T01:20:26.372Z,12.00
2022-09-18T01:20:52.138Z,12.00
2022-09-18T01:21:11.551Z,11.90
2022-09-18T01:21:43.467Z,12.00
2022-09-18T01:22:06.819Z,11.90
2022-09-18T01:22:21.191Z,11.90
2022-09-18T01:23:12.316Z,11.90
2022-09-18T01:23:46.812Z,11.90
2022-09-18T01:24:13.141Z,11.90
2022-09-18T01:25:02.861Z,11.90
2022-09-18T01:25:22.346Z,11.90
2022-09-18T01:25:42.807Z,12.00
2022-09-18T01:26:15.720Z,12.00
2022-09-18T01:26:27.359Z,11.90
2022-09-18T01:27:10.534Z,11.90
2022-09-18T01:27:50.111Z,11.90
2022-09-18T01:28:11.671Z,11.90
2022-09-18T01:28:31.973Z,11.90
2022-09-18T01:28:49.277Z,11.90
2022-09-18T01:29:05.794Z,11.90
2022-09-18T01:29:26.274Z,11.90
2022-09-18T01:29:44.967Z,11.90
2022-09-18T01:30:07.296Z,11.90
2022-09-18T01:30:18.991Z,11.90
2022-09-18T01:30:30.636Z,11.90
2022-09-18T01:30:43.460Z,11.90
2022-09-18T01:30:56.338Z,11.90
2022-09-18T01:31:17.868Z,11.90
2022-09-18T01:31:37.475Z,11.90
2022-09-18T01:31:53.391Z,11.90
2022-09-18T01:32:20.211Z,11.90
2022-09-18T01:32:33.402Z,11.90
2022-09-18T01:32:56.660Z,11.90
2022-09-18T01:33:12.759Z,11.90
2022-09-18T01:33:24.416Z,11.90
2022-09-18T01:33:43.380Z,11.90
2022-09-18T01:33:58.426Z,11.90
2022-09-18T01:34:18.524Z,11.90
2022-09-18T01:34:44.800Z,11.90
2022-09-18T01:35:10.151Z,11.90
2022-09-18T01:35:42.056Z,11.90
2022-09-18T01:35:55.973Z,11.90
2022-09-18T01:36:09.198Z,12.00
2022-09-18T01:36:21.660Z,11.90
2022-09-18T01:36:34.375Z,12.00
2022-09-18T01:36:48.498Z,12.00
2022-09-18T01:37:15.332Z,12.00
2022-09-18T01:37:36.484Z,12.00
2022-09-18T01:38:04.080Z,12.00
2022-09-18T01:38:41.904Z,12.00
2022-09-18T01:39:19.409Z,11.90
2022-09-18T01:39:45.296Z,11.90
2022-09-18T01:40:01.298Z,11.90
2022-09-18T01:40:15.110Z,11.90
2022-09-18T01:40:32.032Z,11.90
2022-09-18T01:40:50.069Z,11.90
2022-09-18T01:41:27.124Z,11.90
2022-09-18T01:41:39.211Z,11.90
2022-09-18T01:41:51.899Z,11.90
2022-09-18T01:42:03.770Z,11.90
2022-09-18T01:42:15.562Z,11.90
2022-09-18T01:42:28.680Z,11.90
2022-09-18T01:42:40.621Z,11.90
2022-09-18T01:42:53.164Z,11.90
2022-09-18T01:43:08.561Z,11.90
2022-09-18T01:43:20.807Z,11.90
2022-09-18T01:43:32.538Z,11.90
2022-09-18T01:43:44.255Z,11.90
2022-09-18T01:44:02.286Z,11.90
2022-09-18T01:44:15.562Z,11.90
2022-09-18T01:44:29.416Z,11.90
2022-09-18T01:44:41.891Z,11.90
2022-09-18T01:44:54.720Z,11.90
2022-09-18T01:45:09.341Z,11.90
2022-09-18T01:45:27.838Z,11.90
2022-09-18T01:45:43.142Z,11.90
2022-09-18T01:45:55.706Z,11.90
2022-09-18T01:46:10.200Z,11.90
2022-09-18T01:46:21.964Z,11.90
2022-09-18T01:46:33.888Z,11.90
2022-09-18T01:46:45.776Z,11.90
2022-09-18T01:46:58.068Z,11.90
2022-09-18T01:47:11.365Z,11.90
2022-09-18T01:47:23.023Z,11.90
2022-09-18T01:47:38.734Z,11.90
2022-09-18T01:47:58.121Z,11.90
2022-09-18T01:48:12.208Z,11.90
2022-09-18T01:48:52.864Z,11.90
2022-09-18T01:49:06.332Z,11.90
2022-09-18T01:49:23.725Z,11.90
2022-09-18T01:49:38.851Z,11.90
2022-09-18T01:49:50.830Z,11.90
2022-09-18T01:50:02.559Z,11.90
2022-09-18T01:50:14.840Z,11.90
2022-09-18T01:50:27.934Z,11.90
2022-09-18T01:50:43.194Z,11.90
2022-09-18T01:50:56.476Z,11.90
2022-09-18T01:51:18.414Z,11.90
2022-09-18T01:51:34.902Z,11.90
2022-09-18T01:51:53.380Z,11.90
2022-09-18T01:52:20.142Z,11.90
2022-09-18T01:52:33.913Z,11.90
2022-09-18T01:53:16.875Z,11.90
2022-09-18T01:53:30.423Z,11.90
2022-09-18T01:53:44.781Z,11.90
2022-09-18T01:54:02.089Z,11.80
2022-09-18T01:54:21.840Z,11.80
2022-09-18T01:54:35.829Z,11.80
2022-09-18T01:54:48.980Z,11.80
2022-09-18T01:55:01.340Z,11.80
2022-09-18T01:55:16.928Z,11.80
2022-09-18T01:55:29.612Z,11.80
2022-09-18T01:55:41.293Z,11.80
2022-09-18T01:56:18.276Z,11.80
2022-09-18T01:56:37.800Z,11.80
2022-09-18T01:56:59.538Z,11.80
2022-09-18T01:57:14.904Z,11.80
2022-09-18T01:57:34.847Z,11.90
2022-09-18T01:58:07.374Z,11.90
2022-09-18T01:58:20.919Z,11.80
2022-09-18T01:58:33.617Z,11.90
2022-09-18T01:58:45.351Z,11.80
2022-09-18T01:58:58.343Z,11.80
2022-09-18T01:59:12.839Z,11.80
2022-09-18T01:59:26.432Z,11.80
2022-09-18T01:59:46.536Z,11.80
2022-09-18T02:00:04.879Z,11.80
2022-09-18T02:00:16.615Z,11.80
2022-09-18T02:00:30.438Z,11.80
2022-09-18T02:00:44.417Z,11.80
2022-09-18T02:00:58.830Z,11.80
2022-09-18T02:01:13.622Z,11.80
2022-09-18T02:01:25.559Z,11.80
2022-09-18T02:01:37.947Z,11.80
2022-09-18T02:01:49.984Z,11.80
2022-09-18T02:02:02.830Z,11.80
2022-09-18T02:02:45.839Z,11.80
2022-09-18T02:03:18.263Z,11.80
2022-09-18T02:03:33.332Z,11.80
2022-09-18T02:03:48.521Z,11.80
2022-09-18T02:04:06.796Z,11.80
2022-09-18T02:04:21.557Z,11.80
2022-09-18T02:04:34.052Z,11.80
2022-09-18T02:04:45.747Z,11.80
2022-09-18T02:04:59.234Z,11.80
2022-09-18T02:05:16.929Z,11.80
2022-09-18T02:05:33.666Z,11.80
2022-09-18T02:05:48.516Z,11.80
2022-09-18T02:06:03.555Z,11.80
2022-09-18T02:06:27.286Z,11.70
2022-09-18T02:06:40.064Z,11.70
2022-09-18T02:06:59.563Z,11.70
2022-09-18T02:07:19.322Z,11.70
2022-09-18T02:08:01.447Z,11.70
2022-09-18T02:08:33.106Z,11.70
2022-09-18T02:08:48.000Z,11.70
2022-09-18T02:08:59.984Z,11.70
2022-09-18T02:09:11.785Z,11.70
2022-09-18T02:09:23.689Z,11.70
2022-09-18T02:09:35.420Z,11.70
2022-09-18T02:09:47.570Z,11.70
2022-09-18T02:09:59.599Z,11.70
2022-09-18T02:10:11.362Z,11.70
2022-09-18T02:10:23.190Z,11.70
2022-09-18T02:10:37.230Z,11.80
2022-09-18T02:10:59.085Z,11.80
2022-09-18T02:11:12.078Z,11.80
2022-09-18T02:11:23.887Z,11.70
2022-09-18T02:11:35.731Z,11.70
2022-09-18T02:11:48.685Z,11.70
2022-09-18T02:12:00.528Z,11.70
2022-09-18T02:12:14.235Z,11.70
2022-09-18T02:12:26.623Z,11.70
2022-09-18T02:12:39.066Z,11.70
2022-09-18T02:12:51.029Z,11.70
2022-09-18T02:13:03.122Z,11.70
2022-09-18T02:13:16.545Z,11.70
2022-09-18T02:13:30.378Z,11.70
2022-09-18T02:13:58.288Z,11.70
2022-09-18T02:14:16.193Z,11.70
2022-09-18T02:14:30.039Z,11.70
2022-09-18T02:14:43.119Z,11.70
2022-09-18T02:14:57.385Z,11.70
2022-09-18T02:15:10.694Z,11.70
2022-09-18T02:15:22.872Z,11.70
2022-09-18T02:15:36.127Z,11.70
2022-09-18T02:15:48.017Z,11.70
2022-09-18T02:16:01.631Z,11.70
2022-09-18T02:16:29.648Z,11.70
2022-09-18T02:16:46.613Z,11.70
2022-09-18T02:17:01.782Z,11.70
2022-09-18T02:17:17.166Z,11.70
2022-09-18T02:17:33.718Z,11.70
2022-09-18T02:17:59.768Z,11.70
2022-09-18T02:18:14.585Z,11.70
2022-09-18T02:18:29.591Z,11.70
2022-09-18T02:18:44.237Z,11.70
2022-09-18T02:18:57.269Z,11.70
2022-09-18T02:19:31.342Z,11.70
2022-09-18T02:19:52.129Z,11.70
2022-09-18T02:20:10.127Z,11.70
2022-09-18T02:20:26.325Z,11.70
2022-09-18T02:20:38.244Z,11.70
2022-09-18T02:20:49.960Z,11.80
2022-09-18T02:21:02.371Z,11.70
2022-09-18T02:21:19.749Z,11.70
2022-09-18T02:21:31.514Z,11.70
2022-09-18T02:21:43.197Z,11.70
2022-09-18T02:21:54.959Z,11.70
2022-09-18T02:22:08.787Z,11.70
2022-09-18T02:22:21.454Z,11.70
2022-09-18T02:22:33.291Z,11.70
2022-09-18T02:22:45.139Z,11.70
2022-09-18T02:22:59.455Z,11.70
2022-09-18T02:23:11.214Z,11.70
2022-09-18T02:23:22.977Z,11.70
2022-09-18T02:23:34.737Z,11.70
2022-09-18T02:23:46.579Z,11.70
2022-09-18T02:24:03.983Z,11.70
2022-09-18T02:24:16.918Z,11.70
2022-09-18T02:24:30.178Z,11.70
2022-09-18T02:24:42.297Z,11.70
2022-09-18T02:24:54.010Z,11.70
2022-09-18T02:25:06.642Z,11.70
2022-09-18T02:25:27.599Z,11.70
2022-09-18T02:25:53.110Z,11.70
2022-09-18T02:26:07.123Z,11.70
2022-09-18T02:26:18.831Z,11.70
2022-09-18T02:26:31.080Z,11.70
2022-09-18T02:26:42.782Z,11.70
2022-09-18T02:26:54.559Z,11.70
2022-09-18T02:27:07.356Z,11.70
2022-09-18T02:27:19.028Z,11.70
2022-09-18T02:27:30.967Z,11.70
2022-09-18T02:27:42.703Z,11.70
2022-09-18T02:27:54.451Z,11.70
2022-09-18T02:28:06.393Z,11.60
2022-09-18T02:28:19.246Z,11.70
2022-09-18T02:28:31.029Z,11.70
2022-09-18T02:28:42.702Z,11.70
2022-09-18T02:28:54.430Z,11.70
2022-09-18T02:29:06.816Z,11.70
2022-09-18T02:29:18.470Z,11.70
2022-09-18T02:29:30.141Z,11.70
2022-09-18T02:29:42.864Z,11.60
2022-09-18T02:29:54.986Z,11.60
2022-09-18T02:30:07.182Z,11.60
2022-09-18T02:30:19.029Z,11.60
2022-09-18T02:30:30.781Z,11.60
2022-09-18T02:30:42.500Z,11.60
2022-09-18T02:30:54.221Z,11.60
2022-09-18T02:31:06.040Z,11.60
2022-09-18T02:31:20.498Z,11.60
2022-09-18T02:31:32.836Z,11.60
2022-09-18T02:31:44.635Z,11.60
2022-09-18T02:31:56.376Z,11.60
2022-09-18T02:32:08.062Z,11.60
2022-09-18T02:32:19.927Z,11.60
2022-09-18T02:32:31.844Z,11.60
2022-09-18T02:32:43.563Z,11.60
2022-09-18T02:32:55.621Z,11.60
2022-09-18T02:33:30.130Z,11.60
2022-09-18T02:33:42.038Z,11.60
2022-09-18T02:33:53.754Z,11.60
2022-09-18T02:34:08.259Z,11.60
2022-09-18T02:34:20.027Z,11.60
2022-09-18T02:34:32.479Z,11.60
2022-09-18T02:34:44.202Z,11.60
2022-09-18T02:34:55.941Z,11.60
2022-09-18T02:35:08.915Z,11.60
2022-09-18T02:35:20.910Z,11.60
2022-09-18T02:35:41.039Z,11.60
2022-09-18T02:36:17.201Z,11.60
2022-09-18T02:36:43.832Z,11.60
2022-09-18T02:37:11.193Z,11.60
2022-09-18T02:37:41.665Z,11.60
2022-09-18T02:37:56.350Z,11.60
2022-09-18T02:38:32.151Z,11.60
2022-09-18T02:39:04.122Z,11.50
2022-09-18T02:39:34.226Z,11.50
2022-09-18T02:39:49.549Z,11.50
2022-09-18T02:40:10.105Z,11.60
2022-09-18T02:40:34.812Z,11.50
2022-09-18T02:41:13.889Z,11.50
2022-09-18T02:41:37.687Z,11.50
2022-09-18T02:42:25.155Z,11.50
2022-09-18T02:42:43.931Z,11.50
2022-09-18T02:43:21.252Z,11.50
2022-09-18T02:43:49.877Z,11.50
2022-09-18T02:44:07.896Z,11.50
2022-09-18T02:44:35.003Z,11.50
2022-09-18T02:45:06.044Z,11.50
2022-09-18T02:45:26.605Z,11.50
2022-09-18T02:45:48.169Z,11.50
2022-09-18T02:46:24.761Z,11.50
2022-09-18T02:47:13.322Z,11.50
2022-09-18T02:47:29.466Z,11.50
2022-09-18T02:47:43.661Z,11.50
2022-09-18T02:48:05.743Z,11.50
2022-09-18T02:48:36.769Z,11.50
2022-09-18T02:48:51.089Z,11.50
2022-09-18T02:49:22.028Z,11.50
2022-09-18T02:49:39.024Z,11.50
2022-09-18T02:50:27.006Z,11.50
2022-09-18T02:50:47.350Z,11.50
2022-09-18T02:51:13.637Z,11.40
2022-09-18T02:51:30.999Z,11.50
2022-09-18T02:51:45.647Z,11.40
2022-09-18T02:52:03.282Z,11.50
2022-09-18T02:52:38.987Z,11.40
2022-09-18T02:53:09.766Z,11.50
2022-09-18T02:53:25.378Z,11.50
2022-09-18T02:53:44.565Z,11.40
2022-09-18T02:53:56.218Z,11.40
2022-09-18T02:54:10.546Z,11.40
2022-09-18T02:54:26.472Z,11.40
2022-09-18T02:54:45.665Z,11.40
2022-09-18T02:55:07.093Z,11.40
2022-09-18T02:55:30.239Z,11.40
2022-09-18T02:55:46.677Z,11.40
2022-09-18T02:56:02.667Z,11.40
2022-09-18T02:56:29.051Z,11.40
2022-09-18T02:56:44.055Z,11.40
2022-09-18T02:56:57.153Z,11.40
2022-09-18T02:57:43.941Z,11.40
2022-09-18T02:58:00.653Z,11.40
2022-09-18T02:58:32.360Z,11.40
2022-09-18T02:58:58.372Z,11.40
2022-09-18T02:59:17.469Z,11.40
2022-09-18T02:59:33.628Z,11.40
2022-09-18T02:59:47.403Z,11.40
2022-09-18T02:59:59.896Z,11.40
2022-09-18T03:00:15.335Z,11.40
2022-09-18T03:00:27.398Z,11.40
2022-09-18T03:00:43.676Z,11.40
2022-09-18T03:00:56.537Z,11.40
2022-09-18T03:01:08.245Z,11.40
2022-09-18T03:01:20.758Z,11.40
2022-09-18T03:01:32.558Z,11.40
2022-09-18T03:01:44.514Z,11.40
2022-09-18T03:01:56.466Z,11.40
2022-09-18T03:02:08.414Z,11.40
2022-09-18T03:02:22.750Z,11.40
2022-09-18T03:02:34.731Z,11.40
2022-09-18T03:02:47.740Z,11.40
2022-09-18T03:02:59.743Z,11.40
2022-09-18T03:03:14.512Z,11.40
2022-09-18T03:03:27.169Z,11.40
2022-09-18T03:03:39.082Z,11.40
2022-09-18T03:03:51.844Z,11.40
2022-09-18T03:04:04.776Z,11.30
2022-09-18T03:04:20.997Z,11.40
2022-09-18T03:04:32.761Z,11.30
2022-09-18T03:04:44.537Z,11.40
2022-09-18T03:04:56.319Z,11.40
2022-09-18T03:05:08.205Z,11.40
2022-09-18T03:05:19.963Z,11.40
2022-09-18T03:05:31.738Z,11.40
2022-09-18T03:05:44.577Z,11.40
2022-09-18T03:05:57.353Z,11.40
2022-09-18T03:06:09.365Z,11.30
2022-09-18T03:06:21.135Z,11.30
2022-09-18T03:06:32.884Z,11.30
2022-09-18T03:06:44.646Z,11.30
2022-09-18T03:06:56.357Z,11.30
2022-09-18T03:07:08.136Z,11.30
2022-09-18T03:07:19.904Z,11.30
2022-09-18T03:07:31.673Z,11.30
2022-09-18T03:07:43.400Z,11.30
2022-09-18T03:07:55.025Z,11.30
2022-09-18T03:08:07.089Z,11.30
2022-09-18T03:08:19.340Z,11.30
2022-09-18T03:08:31.182Z,11.30
2022-09-18T03:08:42.948Z,11.30
2022-09-18T03:08:54.637Z,11.30
2022-09-18T03:09:06.682Z,11.30
2022-09-18T03:09:18.438Z,11.30
2022-09-18T03:09:30.216Z,11.30
2022-09-18T03:09:43.525Z,11.30
2022-09-18T03:09:55.229Z,11.30
2022-09-18T03:10:07.171Z,11.30
2022-09-18T03:10:19.025Z,11.30
2022-09-18T03:10:31.332Z,11.40
2022-09-18T03:10:43.001Z,11.30
2022-09-18T03:10:54.640Z,11.40
2022-09-18T03:11:06.366Z,11.40
2022-09-18T03:11:18.220Z,11.30
2022-09-18T03:11:29.973Z,11.30
2022-09-18T03:11:44.485Z,11.30
2022-09-18T03:11:56.358Z,11.40
2022-09-18T03:12:08.868Z,11.40
2022-09-18T03:12:20.697Z,11.30
2022-09-18T03:12:32.510Z,11.40
2022-09-18T03:12:44.468Z,11.40
2022-09-18T03:12:56.198Z,11.40
2022-09-18T03:13:07.958Z,11.40
2022-09-18T03:13:20.015Z,11.30
2022-09-18T03:13:32.158Z,11.40
2022-09-18T03:13:43.887Z,11.30
2022-09-18T03:13:55.641Z,11.40
2022-09-18T03:14:07.542Z,11.30
2022-09-18T03:14:19.615Z,11.40
2022-09-18T03:14:32.611Z,11.40
2022-09-18T03:14:44.383Z,11.30
2022-09-18T03:14:56.634Z,11.30
2022-09-18T03:15:08.830Z,11.30
2022-09-18T03:15:22.254Z,11.30
2022-09-18T03:15:34.057Z,11.30
2022-09-18T03:15:45.892Z,11.30
2022-09-18T03:15:57.789Z,11.30
2022-09-18T03:16:09.581Z,11.30
2022-09-18T03:16:21.332Z,11.30
2022-09-18T03:16:33.154Z,11.30
2022-09-18T03:16:45.081Z,11.30
2022-09-18T03:16:56.959Z,11.30
2022-09-18T03:17:09.381Z,11.30
2022-09-18T03:17:21.533Z,11.30
2022-09-18T03:17:33.222Z,11.30
2022-09-18T03:17:44.898Z,11.30
2022-09-18T03:17:56.623Z,11.30
2022-09-18T03:18:08.460Z,11.30
2022-09-18T03:18:20.186Z,11.30
2022-09-18T03:18:31.917Z,11.30
2022-09-18T03:18:43.593Z,11.30
2022-09-18T03:18:55.293Z,11.30
2022-09-18T03:19:07.054Z,11.30
2022-09-18T03:19:18.745Z,11.30
2022-09-18T03:19:30.458Z,11.30
2022-09-18T03:19:44.549Z,11.30
2022-09-18T03:19:56.284Z,11.30
2022-09-18T03:20:08.263Z,11.30
2022-09-18T03:20:20.047Z,11.30
2022-09-18T03:20:31.758Z,11.30
2022-09-18T03:20:43.861Z,11.30
2022-09-18T03:20:55.518Z,11.30
2022-09-18T03:21:07.265Z,11.30
2022-09-18T03:21:18.935Z,11.30
2022-09-18T03:21:30.587Z,11.30
2022-09-18T03:21:42.350Z,11.30
2022-09-18T03:21:54.093Z,11.30
2022-09-18T03:22:05.902Z,11.30
2022-09-18T03:22:17.570Z,11.30
2022-09-18T03:22:29.295Z,11.30
2022-09-18T03:22:40.963Z,11.30
2022-09-18T03:22:52.683Z,11.30